sensor_id;sensor_type;location;lat;lon;timestamp;pressure;altitude;pressure_sealevel;temperature;humidity
9899;BME280;4988;49.238;6.698;2024-03-08T00:00:05;98934.44;;;4.28;96.83
9899;BME280;4988;49.238;6.698;2024-03-08T00:02:45;98927.47;;;4.25;97.38
9899;BME280;4988;49.238;6.698;2024-03-08T00:05:10;98925.69;;;4.26;97.55
9899;BME280;4988;49.238;6.698;2024-03-08T00:07:36;98923.88;;;4.28;97.72
9899;BME280;4988;49.238;6.698;2024-03-08T00:10:06;98928.22;;;4.30;97.63
9899;BME280;4988;49.238;6.698;2024-03-08T00:12:32;98926.41;;;4.32;97.94
9899;BME280;4988;49.238;6.698;2024-03-08T00:14:58;98924.56;;;4.36;97.05
9899;BME280;4988;49.238;6.698;2024-03-08T00:17:24;98923.69;;;4.35;97.84
9899;BME280;4988;49.238;6.698;2024-03-08T00:19:50;98923.50;;;4.43;97.51
9899;BME280;4988;49.238;6.698;2024-03-08T00:22:16;98914.78;;;4.41;97.21
9899;BME280;4988;49.238;6.698;2024-03-08T00:24:41;98914.69;;;4.44;96.87
9899;BME280;4988;49.238;6.698;2024-03-08T00:27:07;98918.22;;;4.45;96.81
9899;BME280;4988;49.238;6.698;2024-03-08T00:29:34;98919.97;;;4.44;97.58
9899;BME280;4988;49.238;6.698;2024-03-08T00:31:59;98909.47;;;4.43;96.97
9899;BME280;4988;49.238;6.698;2024-03-08T00:34:25;98905.88;;;4.45;97.30
9899;BME280;4988;49.238;6.698;2024-03-08T00:36:50;98911.09;;;4.48;96.98
9899;BME280;4988;49.238;6.698;2024-03-08T00:39:16;98905.97;;;4.42;97.10
9899;BME280;4988;49.238;6.698;2024-03-08T00:41:42;98902.34;;;4.46;97.21
9899;BME280;4988;49.238;6.698;2024-03-08T00:44:09;98900.63;;;4.45;96.82
9899;BME280;4988;49.238;6.698;2024-03-08T00:46:35;98894.50;;;4.45;96.64
9899;BME280;4988;49.238;6.698;2024-03-08T00:49:00;98887.53;;;4.41;97.07
9899;BME280;4988;49.238;6.698;2024-03-08T00:51:26;98883.22;;;4.38;97.52
9899;BME280;4988;49.238;6.698;2024-03-08T00:53:51;98884.97;;;4.39;97.62
9899;BME280;4988;49.238;6.698;2024-03-08T00:56:17;98878.03;;;4.35;97.33
9899;BME280;4988;49.238;6.698;2024-03-08T00:58:42;98880.78;;;4.30;97.99
9899;BME280;4988;49.238;6.698;2024-03-08T01:01:07;98879.16;;;4.25;97.59
9899;BME280;4988;49.238;6.698;2024-03-08T01:03:35;98871.31;;;4.23;98.16
9899;BME280;4988;49.238;6.698;2024-03-08T01:06:00;98864.25;;;4.24;97.89
9899;BME280;4988;49.238;6.698;2024-03-08T01:08:26;98865.97;;;4.25;98.44
9899;BME280;4988;49.238;6.698;2024-03-08T01:10:52;98866.06;;;4.22;98.26
9899;BME280;4988;49.238;6.698;2024-03-08T01:13:17;98859.91;;;4.23;98.30
9899;BME280;4988;49.238;6.698;2024-03-08T01:15:44;98851.91;;;4.26;98.64
9899;BME280;4988;49.238;6.698;2024-03-08T01:18:09;98849.28;;;4.26;98.71
9899;BME280;4988;49.238;6.698;2024-03-08T01:20:35;98853.56;;;4.30;98.28
9899;BME280;4988;49.238;6.698;2024-03-08T01:23:00;98856.28;;;4.27;98.88
9899;BME280;4988;49.238;6.698;2024-03-08T01:25:26;98850.28;;;4.22;98.87
9899;BME280;4988;49.238;6.698;2024-03-08T01:27:52;98854.63;;;4.23;99.05
9899;BME280;4988;49.238;6.698;2024-03-08T01:30:19;98839.72;;;4.22;98.68
9899;BME280;4988;49.238;6.698;2024-03-08T01:32:45;98834.56;;;4.17;99.00
9899;BME280;4988;49.238;6.698;2024-03-08T01:35:10;98844.28;;;4.15;99.17
9899;BME280;4988;49.238;6.698;2024-03-08T01:37:36;98832.88;;;4.14;98.84
9899;BME280;4988;49.238;6.698;2024-03-08T01:40:02;98834.69;;;4.12;99.00
9899;BME280;4988;49.238;6.698;2024-03-08T01:42:28;98825.03;;;4.13;99.00
9899;BME280;4988;49.238;6.698;2024-03-08T01:44:54;98818.97;;;4.08;99.61
9899;BME280;4988;49.238;6.698;2024-03-08T01:47:20;98820.81;;;4.06;99.78
9899;BME280;4988;49.238;6.698;2024-03-08T01:49:49;98816.44;;;4.05;100.00
9899;BME280;4988;49.238;6.698;2024-03-08T01:52:18;98811.22;;;4.01;99.98
9899;BME280;4988;49.238;6.698;2024-03-08T01:54:45;98815.81;;;3.95;100.00
9899;BME280;4988;49.238;6.698;2024-03-08T01:57:11;98808.94;;;3.88;100.00
9899;BME280;4988;49.238;6.698;2024-03-08T01:59:37;98804.66;;;3.83;100.00
9899;BME280;4988;49.238;6.698;2024-03-08T02:02:04;98798.41;;;3.88;100.00
9899;BME280;4988;49.238;6.698;2024-03-08T02:04:31;98795.00;;;3.84;100.00
9899;BME280;4988;49.238;6.698;2024-03-08T02:06:57;98796.66;;;3.88;100.00
9899;BME280;4988;49.238;6.698;2024-03-08T02:09:25;98786.19;;;3.85;100.00
9899;BME280;4988;49.238;6.698;2024-03-08T02:11:51;98786.34;;;3.79;100.00
9899;BME280;4988;49.238;6.698;2024-03-08T02:14:17;98779.44;;;3.73;100.00
9899;BME280;4988;49.238;6.698;2024-03-08T02:16:44;98781.34;;;3.68;100.00
9899;BME280;4988;49.238;6.698;2024-03-08T02:19:09;98783.06;;;3.69;100.00
9899;BME280;4988;49.238;6.698;2024-03-08T02:21:35;98783.03;;;3.70;100.00
9899;BME280;4988;49.238;6.698;2024-03-08T02:24:01;98779.66;;;3.65;100.00
9899;BME280;4988;49.238;6.698;2024-03-08T02:26:26;98778.75;;;3.66;100.00
9899;BME280;4988;49.238;6.698;2024-03-08T02:28:52;98780.38;;;3.70;100.00
9899;BME280;4988;49.238;6.698;2024-03-08T02:31:17;98774.28;;;3.70;100.00
9899;BME280;4988;49.238;6.698;2024-03-08T02:33:42;98772.53;;;3.69;100.00
9899;BME280;4988;49.238;6.698;2024-03-08T02:36:08;98764.44;;;3.78;100.00
9899;BME280;4988;49.238;6.698;2024-03-08T02:38:33;98767.06;;;3.78;100.00
9899;BME280;4988;49.238;6.698;2024-03-08T02:40:58;98758.53;;;3.68;100.00
9899;BME280;4988;49.238;6.698;2024-03-08T02:43:24;98752.34;;;3.69;100.00
9899;BME280;4988;49.238;6.698;2024-03-08T02:45:50;98760.91;;;3.78;100.00
9899;BME280;4988;49.238;6.698;2024-03-08T02:48:16;98751.47;;;3.69;100.00
9899;BME280;4988;49.238;6.698;2024-03-08T02:50:41;98748.91;;;3.67;100.00
9899;BME280;4988;49.238;6.698;2024-03-08T02:53:10;98742.75;;;3.67;100.00
9899;BME280;4988;49.238;6.698;2024-03-08T02:55:36;98744.47;;;3.68;100.00
9899;BME280;4988;49.238;6.698;2024-03-08T02:58:03;98742.75;;;3.68;100.00
9899;BME280;4988;49.238;6.698;2024-03-08T03:00:29;98740.09;;;3.68;100.00
9899;BME280;4988;49.238;6.698;2024-03-08T03:02:56;98741.97;;;3.63;100.00
9899;BME280;4988;49.238;6.698;2024-03-08T03:05:22;98741.09;;;3.63;100.00
9899;BME280;4988;49.238;6.698;2024-03-08T03:07:47;98741.09;;;3.63;100.00
9899;BME280;4988;49.238;6.698;2024-03-08T03:10:13;98730.72;;;3.57;100.00
9899;BME280;4988;49.238;6.698;2024-03-08T03:12:42;98741.25;;;3.57;100.00
9899;BME280;4988;49.238;6.698;2024-03-08T03:15:07;98734.22;;;3.57;100.00
9899;BME280;4988;49.238;6.698;2024-03-08T03:17:33;98736.78;;;3.60;100.00
9899;BME280;4988;49.238;6.698;2024-03-08T03:19:58;98732.53;;;3.54;100.00
9899;BME280;4988;49.238;6.698;2024-03-08T03:22:24;98736.97;;;3.52;100.00
9899;BME280;4988;49.238;6.698;2024-03-08T03:24:50;98730.72;;;3.57;100.00
9899;BME280;4988;49.238;6.698;2024-03-08T03:27:16;98724.63;;;3.54;100.00
9899;BME280;4988;49.238;6.698;2024-03-08T03:29:43;98723.72;;;3.56;100.00
9899;BME280;4988;49.238;6.698;2024-03-08T03:32:14;98724.75;;;3.50;100.00
9899;BME280;4988;49.238;6.698;2024-03-08T03:34:40;98716.88;;;3.50;100.00
9899;BME280;4988;49.238;6.698;2024-03-08T03:37:06;98717.88;;;3.44;100.00
9899;BME280;4988;49.238;6.698;2024-03-08T03:39:33;98720.50;;;3.44;100.00
9899;BME280;4988;49.238;6.698;2024-03-08T03:42:13;98713.41;;;3.48;100.00
9899;BME280;4988;49.238;6.698;2024-03-08T03:44:39;98713.44;;;3.46;100.00
9899;BME280;4988;49.238;6.698;2024-03-08T03:47:05;98715.19;;;3.46;100.00
9899;BME280;4988;49.238;6.698;2024-03-08T03:49:32;98716.09;;;3.46;100.00
9899;BME280;4988;49.238;6.698;2024-03-08T03:51:57;98715.44;;;3.36;100.00
9899;BME280;4988;49.238;6.698;2024-03-08T03:54:22;98713.75;;;3.34;100.00
9899;BME280;4988;49.238;6.698;2024-03-08T03:56:48;98722.53;;;3.33;100.00
9899;BME280;4988;49.238;6.698;2024-03-08T03:59:17;98714.66;;;3.31;100.00
9899;BME280;4988;49.238;6.698;2024-03-08T04:01:43;98710.19;;;3.35;100.00
9899;BME280;4988;49.238;6.698;2024-03-08T04:04:08;98709.28;;;3.36;100.00
9899;BME280;4988;49.238;6.698;2024-03-08T04:06:34;98712.75;;;3.38;100.00
9899;BME280;4988;49.238;6.698;2024-03-08T04:08:59;98706.59;;;3.39;100.00
9899;BME280;4988;49.238;6.698;2024-03-08T04:11:24;98713.66;;;3.37;100.00
9899;BME280;4988;49.238;6.698;2024-03-08T04:13:50;98702.34;;;3.33;100.00
9899;BME280;4988;49.238;6.698;2024-03-08T04:16:15;98709.38;;;3.31;100.00
9899;BME280;4988;49.238;6.698;2024-03-08T04:18:40;98698.00;;;3.31;100.00
9899;BME280;4988;49.238;6.698;2024-03-08T04:21:06;98699.81;;;3.29;100.00
9899;BME280;4988;49.238;6.698;2024-03-08T04:23:34;98702.47;;;3.27;100.00
9899;BME280;4988;49.238;6.698;2024-03-08T04:26:05;98708.69;;;3.25;100.00
9899;BME280;4988;49.238;6.698;2024-03-08T04:28:32;98711.25;;;3.28;100.00
9899;BME280;4988;49.238;6.698;2024-03-08T04:30:58;98710.41;;;3.26;100.00
9899;BME280;4988;49.238;6.698;2024-03-08T04:33:25;98703.41;;;3.25;100.00
9899;BME280;4988;49.238;6.698;2024-03-08T04:35:50;98696.38;;;3.25;100.00
9899;BME280;4988;49.238;6.698;2024-03-08T04:38:16;98701.63;;;3.27;100.00
9899;BME280;4988;49.238;6.698;2024-03-08T04:40:41;98701.63;;;3.27;100.00
9899;BME280;4988;49.238;6.698;2024-03-08T04:43:07;98706.94;;;3.24;100.00
9899;BME280;4988;49.238;6.698;2024-03-08T04:45:33;98712.44;;;3.14;100.00
9899;BME280;4988;49.238;6.698;2024-03-08T04:47:59;98702.84;;;3.12;100.00
9899;BME280;4988;49.238;6.698;2024-03-08T04:50:24;98707.31;;;3.08;100.00
9899;BME280;4988;49.238;6.698;2024-03-08T04:52:49;98702.84;;;3.12;100.00
9899;BME280;4988;49.238;6.698;2024-03-08T04:55:15;98700.38;;;3.04;100.00
9899;BME280;4988;49.238;6.698;2024-03-08T04:57:40;98699.53;;;3.03;100.00
9899;BME280;4988;49.238;6.698;2024-03-08T05:00:07;98699.50;;;3.05;100.00
9899;BME280;4988;49.238;6.698;2024-03-08T05:02:36;98701.22;;;3.06;100.00
9899;BME280;4988;49.238;6.698;2024-03-08T05:05:07;98700.38;;;3.04;100.00
9899;BME280;4988;49.238;6.698;2024-03-08T05:07:32;98698.59;;;3.06;100.00
9899;BME280;4988;49.238;6.698;2024-03-08T05:09:58;98695.13;;;3.04;100.00
9899;BME280;4988;49.238;6.698;2024-03-08T05:12:24;98693.38;;;3.04;100.00
9899;BME280;4988;49.238;6.698;2024-03-08T05:14:49;98700.53;;;2.98;100.00
9899;BME280;4988;49.238;6.698;2024-03-08T05:17:15;98696.94;;;3.02;100.00
9899;BME280;4988;49.238;6.698;2024-03-08T05:19:41;98696.19;;;2.95;100.00
9899;BME280;4988;49.238;6.698;2024-03-08T05:22:07;98700.47;;;3.01;100.00
9899;BME280;4988;49.238;6.698;2024-03-08T05:24:33;98693.44;;;3.01;100.00
9899;BME280;4988;49.238;6.698;2024-03-08T05:26:58;98702.22;;;3.00;100.00
9899;BME280;4988;49.238;6.698;2024-03-08T05:29:25;98693.47;;;3.00;100.00
9899;BME280;4988;49.238;6.698;2024-03-08T05:31:52;98696.16;;;2.97;100.00
9899;BME280;4988;49.238;6.698;2024-03-08T05:34:18;98691.81;;;2.96;100.00
9899;BME280;4988;49.238;6.698;2024-03-08T05:36:44;98693.66;;;2.90;100.00
9899;BME280;4988;49.238;6.698;2024-03-08T05:39:14;98685.16;;;2.79;100.00
9899;BME280;4988;49.238;6.698;2024-03-08T05:41:40;98687.72;;;2.82;100.00
9899;BME280;4988;49.238;6.698;2024-03-08T05:44:06;98689.47;;;2.82;100.00
9899;BME280;4988;49.238;6.698;2024-03-08T05:46:31;98695.63;;;2.82;100.00
9899;BME280;4988;49.238;6.698;2024-03-08T05:48:57;98692.19;;;2.79;100.00
9899;BME280;4988;49.238;6.698;2024-03-08T05:51:24;98688.69;;;2.78;100.00
9899;BME280;4988;49.238;6.698;2024-03-08T05:53:52;98692.09;;;2.83;100.00
9899;BME280;4988;49.238;6.698;2024-03-08T05:56:18;98689.63;;;2.76;100.00
9899;BME280;4988;49.238;6.698;2024-03-08T05:58:44;98672.09;;;2.76;100.00
9899;BME280;4988;49.238;6.698;2024-03-08T06:01:09;98675.53;;;2.78;100.00
9899;BME280;4988;49.238;6.698;2024-03-08T06:03:37;98674.66;;;2.79;100.00
9899;BME280;4988;49.238;6.698;2024-03-08T06:06:09;98676.56;;;2.71;100.00
9899;BME280;4988;49.238;6.698;2024-03-08T06:08:34;98667.78;;;2.73;100.00
9899;BME280;4988;49.238;6.698;2024-03-08T06:10:59;98668.72;;;2.69;100.00
9899;BME280;4988;49.238;6.698;2024-03-08T06:13:27;98674.06;;;2.66;100.00
9899;BME280;4988;49.238;6.698;2024-03-08T06:15:52;98673.97;;;2.69;100.00
9899;BME280;4988;49.238;6.698;2024-03-08T06:18:18;98677.44;;;2.71;100.00
9899;BME280;4988;49.238;6.698;2024-03-08T06:20:43;98667.78;;;2.72;100.00
9899;BME280;4988;49.238;6.698;2024-03-08T06:23:09;98670.38;;;2.75;100.00
9899;BME280;4988;49.238;6.698;2024-03-08T06:25:34;98673.03;;;2.72;100.00
9899;BME280;4988;49.238;6.698;2024-03-08T06:28:00;98679.19;;;2.72;100.00
9899;BME280;4988;49.238;6.698;2024-03-08T06:30:25;98674.81;;;2.71;100.00
9899;BME280;4988;49.238;6.698;2024-03-08T06:32:50;98677.38;;;2.74;100.00
9899;BME280;4988;49.238;6.698;2024-03-08T06:35:17;98676.56;;;2.71;100.00
9899;BME280;4988;49.238;6.698;2024-03-08T06:37:42;98673.00;;;2.75;100.00
9899;BME280;4988;49.238;6.698;2024-03-08T06:40:09;98674.50;;;2.85;100.00
9899;BME280;4988;49.238;6.698;2024-03-08T06:42:39;98678.25;;;2.75;100.00
9899;BME280;4988;49.238;6.698;2024-03-08T06:45:05;98669.38;;;2.79;100.00
9899;BME280;4988;49.238;6.698;2024-03-08T06:47:31;98676.44;;;2.77;100.00
9899;BME280;4988;49.238;6.698;2024-03-08T06:49:57;98672.84;;;2.81;100.00
9899;BME280;4988;49.238;6.698;2024-03-08T06:52:22;98677.97;;;2.87;100.00
9899;BME280;4988;49.238;6.698;2024-03-08T06:54:48;98671.84;;;2.87;100.00
9899;BME280;4988;49.238;6.698;2024-03-08T06:57:14;98666.72;;;2.81;100.00
9899;BME280;4988;49.238;6.698;2024-03-08T06:59:39;98660.56;;;2.83;100.00
9899;BME280;4988;49.238;6.698;2024-03-08T07:02:05;98663.19;;;2.83;99.44
9899;BME280;4988;49.238;6.698;2024-03-08T07:04:30;98669.16;;;2.90;99.75
9899;BME280;4988;49.238;6.698;2024-03-08T07:06:56;98661.22;;;2.92;100.00
9899;BME280;4988;49.238;6.698;2024-03-08T07:09:23;98659.47;;;2.92;99.61
9899;BME280;4988;49.238;6.698;2024-03-08T07:11:48;98660.28;;;2.96;99.01
9899;BME280;4988;49.238;6.698;2024-03-08T07:14:21;98652.34;;;2.97;99.02
9899;BME280;4988;49.238;6.698;2024-03-08T07:16:47;98654.06;;;2.98;99.03
9899;BME280;4988;49.238;6.698;2024-03-08T07:19:12;98651.31;;;3.03;99.17
9899;BME280;4988;49.238;6.698;2024-03-08T07:21:37;98645.91;;;3.11;98.45
9899;BME280;4988;49.238;6.698;2024-03-08T07:24:02;98643.91;;;3.20;98.32
9899;BME280;4988;49.238;6.698;2024-03-08T07:26:38;98635.88;;;3.25;97.31
9899;BME280;4988;49.238;6.698;2024-03-08T07:29:03;98640.09;;;3.34;96.68
9899;BME280;4988;49.238;6.698;2024-03-08T07:31:29;98644.31;;;3.40;95.69
9899;BME280;4988;49.238;6.698;2024-03-08T07:34:10;98630.16;;;3.45;95.92
9899;BME280;4988;49.238;6.698;2024-03-08T07:36:36;98633.53;;;3.50;94.84
9899;BME280;4988;49.238;6.698;2024-03-08T07:39:01;98634.25;;;3.56;94.47
9899;BME280;4988;49.238;6.698;2024-03-08T07:41:27;98634.97;;;3.62;94.06
9899;BME280;4988;49.238;6.698;2024-03-08T07:43:55;98628.59;;;3.71;93.60
9899;BME280;4988;49.238;6.698;2024-03-08T07:46:20;98632.81;;;3.78;92.18
9899;BME280;4988;49.238;6.698;2024-03-08T07:48:45;98632.63;;;3.84;92.39
9899;BME280;4988;49.238;6.698;2024-03-08T07:51:11;98631.53;;;3.92;91.03
9899;BME280;4988;49.238;6.698;2024-03-08T07:53:37;98634.84;;;4.00;90.98
9899;BME280;4988;49.238;6.698;2024-03-08T07:56:03;98636.53;;;4.02;90.72
9899;BME280;4988;49.238;6.698;2024-03-08T07:58:30;98631.81;;;4.14;90.05
9899;BME280;4988;49.238;6.698;2024-03-08T08:00:55;98634.31;;;4.18;88.52
9899;BME280;4988;49.238;6.698;2024-03-08T08:03:20;98629.88;;;4.21;88.69
9899;BME280;4988;49.238;6.698;2024-03-08T08:05:46;98627.91;;;4.29;88.95
9899;BME280;4988;49.238;6.698;2024-03-08T08:08:12;98617.13;;;4.37;87.90
9899;BME280;4988;49.238;6.698;2024-03-08T08:10:37;98614.25;;;4.44;87.05
9899;BME280;4988;49.238;6.698;2024-03-08T08:13:03;98617.63;;;4.49;86.90
9899;BME280;4988;49.238;6.698;2024-03-08T08:15:29;98611.88;;;4.65;87.08
9899;BME280;4988;49.238;6.698;2024-03-08T08:17:55;98610.09;;;4.67;86.13
9899;BME280;4988;49.238;6.698;2024-03-08T08:20:20;98608.25;;;4.69;84.93
9899;BME280;4988;49.238;6.698;2024-03-08T08:22:47;98608.44;;;4.63;85.03
9899;BME280;4988;49.238;6.698;2024-03-08T08:25:13;98606.34;;;4.74;84.78
9899;BME280;4988;49.238;6.698;2024-03-08T08:27:41;98600.78;;;4.83;84.47
9899;BME280;4988;49.238;6.698;2024-03-08T08:30:08;98598.00;;;4.88;84.16
9899;BME280;4988;49.238;6.698;2024-03-08T08:32:34;98606.69;;;4.92;84.08
9899;BME280;4988;49.238;6.698;2024-03-08T08:35:01;98596.06;;;4.93;83.29
9899;BME280;4988;49.238;6.698;2024-03-08T08:37:29;98600.88;;;5.07;83.45
9899;BME280;4988;49.238;6.698;2024-03-08T08:39:55;98591.78;;;5.18;82.78
9899;BME280;4988;49.238;6.698;2024-03-08T08:42:20;98594.22;;;5.24;81.74
9899;BME280;4988;49.238;6.698;2024-03-08T08:44:45;98586.31;;;5.22;81.12
9899;BME280;4988;49.238;6.698;2024-03-08T08:47:11;98584.97;;;5.37;82.14
9899;BME280;4988;49.238;6.698;2024-03-08T08:49:38;98584.63;;;5.46;80.70
9899;BME280;4988;49.238;6.698;2024-03-08T08:52:03;98586.22;;;5.52;81.13
9899;BME280;4988;49.238;6.698;2024-03-08T08:54:29;98587.75;;;5.59;80.32
9899;BME280;4988;49.238;6.698;2024-03-08T08:56:54;98586.75;;;5.62;79.99
9899;BME280;4988;49.238;6.698;2024-03-08T08:59:20;98583.91;;;5.68;79.37
9899;BME280;4988;49.238;6.698;2024-03-08T09:01:46;98583.91;;;5.68;79.23
9899;BME280;4988;49.238;6.698;2024-03-08T09:04:15;98580.81;;;5.80;79.47
9899;BME280;4988;49.238;6.698;2024-03-08T09:06:40;98584.00;;;5.90;79.11
9899;BME280;4988;49.238;6.698;2024-03-08T09:09:06;98583.94;;;5.92;77.73
9899;BME280;4988;49.238;6.698;2024-03-08T09:11:34;98570.63;;;5.95;78.52
9899;BME280;4988;49.238;6.698;2024-03-08T09:13:59;98572.28;;;5.99;77.27
9899;BME280;4988;49.238;6.698;2024-03-08T09:16:25;98572.34;;;5.96;77.82
9899;BME280;4988;49.238;6.698;2024-03-08T09:18:51;98565.16;;;6.01;77.90
9899;BME280;4988;49.238;6.698;2024-03-08T09:21:17;98562.97;;;6.13;78.55
9899;BME280;4988;49.238;6.698;2024-03-08T09:23:42;98560.78;;;6.24;78.85
9899;BME280;4988;49.238;6.698;2024-03-08T09:26:10;98558.59;;;6.35;76.93
9899;BME280;4988;49.238;6.698;2024-03-08T09:28:38;98554.97;;;6.38;76.41
9899;BME280;4988;49.238;6.698;2024-03-08T09:31:03;98547.84;;;6.40;75.78
9899;BME280;4988;49.238;6.698;2024-03-08T09:33:30;98556.13;;;6.53;76.45
9899;BME280;4988;49.238;6.698;2024-03-08T09:35:56;98551.00;;;6.50;75.44
9899;BME280;4988;49.238;6.698;2024-03-08T09:38:25;98554.78;;;6.42;75.07
9899;BME280;4988;49.238;6.698;2024-03-08T09:40:51;98554.63;;;6.47;75.89
9899;BME280;4988;49.238;6.698;2024-03-08T09:43:16;98550.41;;;6.41;75.49
9899;BME280;4988;49.238;6.698;2024-03-08T09:45:45;98543.00;;;6.51;75.38
9899;BME280;4988;49.238;6.698;2024-03-08T09:48:12;98539.19;;;6.58;74.99
9899;BME280;4988;49.238;6.698;2024-03-08T09:50:38;98532.59;;;6.69;75.36
9899;BME280;4988;49.238;6.698;2024-03-08T09:53:04;98535.06;;;6.73;74.70
9899;BME280;4988;49.238;6.698;2024-03-08T09:55:35;98528.75;;;6.78;75.13
9899;BME280;4988;49.238;6.698;2024-03-08T09:58:02;98523.97;;;6.86;75.22
9899;BME280;4988;49.238;6.698;2024-03-08T10:00:45;98516.78;;;6.89;74.02
9899;BME280;4988;49.238;6.698;2024-03-08T10:03:11;98510.97;;;7.02;75.18
9899;BME280;4988;49.238;6.698;2024-03-08T10:05:40;98508.06;;;7.08;73.69
9899;BME280;4988;49.238;6.698;2024-03-08T10:08:05;98509.53;;;7.15;74.01
9899;BME280;4988;49.238;6.698;2024-03-08T10:10:34;98513.66;;;7.22;73.21
9899;BME280;4988;49.238;6.698;2024-03-08T10:12:59;98509.59;;;7.14;73.29
9899;BME280;4988;49.238;6.698;2024-03-08T10:15:27;98500.75;;;7.15;72.46
9899;BME280;4988;49.238;6.698;2024-03-08T10:17:55;98494.28;;;7.22;72.73
9899;BME280;4988;49.238;6.698;2024-03-08T10:20:21;98485.34;;;7.24;73.97
9899;BME280;4988;49.238;6.698;2024-03-08T10:22:46;98483.81;;;7.39;73.06
9899;BME280;4988;49.238;6.698;2024-03-08T10:25:12;98490.81;;;7.40;71.47
9899;BME280;4988;49.238;6.698;2024-03-08T10:27:39;98473.94;;;7.43;73.04
9899;BME280;4988;49.238;6.698;2024-03-08T10:30:13;98481.53;;;7.51;72.17
9899;BME280;4988;49.238;6.698;2024-03-08T10:32:41;98481.41;;;7.54;71.67
9899;BME280;4988;49.238;6.698;2024-03-08T10:35:07;98479.81;;;7.50;71.68
9899;BME280;4988;49.238;6.698;2024-03-08T10:37:40;98477.69;;;7.58;72.94
9899;BME280;4988;49.238;6.698;2024-03-08T10:40:09;98466.38;;;7.73;72.48
9899;BME280;4988;49.238;6.698;2024-03-08T10:42:47;98470.34;;;7.84;71.20
9899;BME280;4988;49.238;6.698;2024-03-08T10:50:41;98463.63;;;8.15;70.44
9899;BME280;4988;49.238;6.698;2024-03-08T10:53:08;98453.19;;;8.12;69.15
9899;BME280;4988;49.238;6.698;2024-03-08T10:55:36;98456.38;;;8.18;70.25
9899;BME280;4988;49.238;6.698;2024-03-08T10:58:04;98454.28;;;8.25;69.46
9899;BME280;4988;49.238;6.698;2024-03-08T11:00:30;98444.41;;;8.29;69.32
9899;BME280;4988;49.238;6.698;2024-03-08T11:02:56;98455.50;;;8.37;69.56
9899;BME280;4988;49.238;6.698;2024-03-08T11:05:41;98449.28;;;8.38;69.25
9899;BME280;4988;49.238;6.698;2024-03-08T11:08:18;98446.19;;;8.47;68.67
9899;BME280;4988;49.238;6.698;2024-03-08T11:10:54;98434.34;;;8.55;68.94
9899;BME280;4988;49.238;6.698;2024-03-08T11:13:41;98429.59;;;8.61;69.07
9899;BME280;4988;49.238;6.698;2024-03-08T11:16:12;98426.66;;;8.67;68.59
9899;BME280;4988;49.238;6.698;2024-03-08T11:19:04;98433.81;;;8.65;67.75
9899;BME280;4988;49.238;6.698;2024-03-08T11:21:31;98431.38;;;8.61;67.15
9899;BME280;4988;49.238;6.698;2024-03-08T11:24:16;98417.97;;;8.64;67.85
9899;BME280;4988;49.238;6.698;2024-03-08T11:26:42;98418.28;;;8.75;67.99
9899;BME280;4988;49.238;6.698;2024-03-08T11:32:04;98412.16;;;8.75;66.90
9899;BME280;4988;49.238;6.698;2024-03-08T11:34:31;98404.63;;;8.83;67.46
9899;BME280;4988;49.238;6.698;2024-03-08T11:36:58;98401.59;;;8.91;68.42
9899;BME280;4988;49.238;6.698;2024-03-08T11:39:27;98392.91;;;9.05;67.70
9899;BME280;4988;49.238;6.698;2024-03-08T11:41:53;98389.00;;;9.12;66.79
9899;BME280;4988;49.238;6.698;2024-03-08T11:44:19;98394.47;;;9.09;66.06
9899;BME280;4988;49.238;6.698;2024-03-08T11:46:45;98384.56;;;9.12;66.39
9899;BME280;4988;49.238;6.698;2024-03-08T11:49:13;98378.78;;;9.22;66.20
9899;BME280;4988;49.238;6.698;2024-03-08T11:51:39;98372.44;;;9.24;66.18
9899;BME280;4988;49.238;6.698;2024-03-08T11:54:06;98366.78;;;9.30;66.90
9899;BME280;4988;49.238;6.698;2024-03-08T11:56:31;98366.91;;;9.45;67.53
9899;BME280;4988;49.238;6.698;2024-03-08T11:58:57;98354.00;;;9.55;65.99
9899;BME280;4988;49.238;6.698;2024-03-08T12:01:24;98358.97;;;9.61;64.94
9899;BME280;4988;49.238;6.698;2024-03-08T12:03:53;98349.53;;;9.55;65.38
9899;BME280;4988;49.238;6.698;2024-03-08T12:06:19;98345.50;;;9.64;65.80
9899;BME280;4988;49.238;6.698;2024-03-08T12:08:46;98348.06;;;9.65;64.86
9899;BME280;4988;49.238;6.698;2024-03-08T12:11:14;98337.63;;;9.62;63.82
9899;BME280;4988;49.238;6.698;2024-03-08T12:13:40;98334.09;;;9.62;63.49
9899;BME280;4988;49.238;6.698;2024-03-08T12:16:06;98332.13;;;9.65;64.27
9899;BME280;4988;49.238;6.698;2024-03-08T12:18:34;98317.91;;;9.66;64.10
9899;BME280;4988;49.238;6.698;2024-03-08T12:21:06;98317.47;;;9.74;63.85
9899;BME280;4988;49.238;6.698;2024-03-08T12:23:47;98306.91;;;9.73;63.58
9899;BME280;4988;49.238;6.698;2024-03-08T12:26:24;98310.00;;;9.81;64.37
9899;BME280;4988;49.238;6.698;2024-03-08T12:28:51;98298.25;;;9.85;63.75
9899;BME280;4988;49.238;6.698;2024-03-08T12:31:17;98296.03;;;9.93;63.18
9899;BME280;4988;49.238;6.698;2024-03-08T12:33:53;98293.09;;;9.98;64.22
9899;BME280;4988;49.238;6.698;2024-03-08T12:36:20;98296.25;;;10.05;62.34
9899;BME280;4988;49.238;6.698;2024-03-08T12:38:46;98289.84;;;10.09;62.38
9899;BME280;4988;49.238;6.698;2024-03-08T12:41:15;98288.13;;;10.08;62.64
9899;BME280;4988;49.238;6.698;2024-03-08T12:43:42;98289.84;;;10.09;62.26
9899;BME280;4988;49.238;6.698;2024-03-08T12:46:11;98270.09;;;10.13;62.93
9899;BME280;4988;49.238;6.698;2024-03-08T12:48:37;98259.09;;;10.19;62.63
9899;BME280;4988;49.238;6.698;2024-03-08T12:51:08;98271.25;;;10.23;62.79
9899;BME280;4988;49.238;6.698;2024-03-08T12:53:34;98278.75;;;10.17;62.17
9899;BME280;4988;49.238;6.698;2024-03-08T12:55:59;98266.75;;;10.09;62.34
9899;BME280;4988;49.238;6.698;2024-03-08T12:58:25;98264.94;;;10.10;63.30
9899;BME280;4988;49.238;6.698;2024-03-08T13:00:51;98252.06;;;10.18;63.83
9899;BME280;4988;49.238;6.698;2024-03-08T13:03:17;98246.38;;;10.24;63.10
9899;BME280;4988;49.238;6.698;2024-03-08T13:05:42;98238.22;;;10.27;62.76
9899;BME280;4988;49.238;6.698;2024-03-08T13:08:08;98237.44;;;10.25;62.21
9899;BME280;4988;49.238;6.698;2024-03-08T13:10:41;98232.91;;;10.27;62.61
9899;BME280;4988;49.238;6.698;2024-03-08T13:13:10;98229.00;;;10.33;62.72
9899;BME280;4988;49.238;6.698;2024-03-08T13:15:37;98232.38;;;10.37;61.84
9899;BME280;4988;49.238;6.698;2024-03-08T13:18:02;98225.94;;;10.41;61.48
9899;BME280;4988;49.238;6.698;2024-03-08T13:20:28;98228.03;;;10.50;62.62
9899;BME280;4988;49.238;6.698;2024-03-08T13:22:55;98219.88;;;10.53;60.87
9899;BME280;4988;49.238;6.698;2024-03-08T13:25:21;98213.88;;;10.50;60.75
9899;BME280;4988;49.238;6.698;2024-03-08T13:27:46;98209.03;;;10.56;60.87
9899;BME280;4988;49.238;6.698;2024-03-08T13:30:12;98209.50;;;10.63;62.12
9899;BME280;4988;49.238;6.698;2024-03-08T13:32:42;98207.22;;;10.71;61.98